Time;durP1;ratioP1;P1;durP2;ratioP2;P2;SDS_P1;SDS_P2;PMS_P1;PMS_P2;Temp;Humidity;BMP_temperature;BMP_pressure;BME280_temperature;BME280_humidity;BME280_pressure;Samples;Min_cycle;Max_cycle;Signal;HPM_P1;HPM_P2
2023/12/08 00:00:48;;;;;;;13.55;10.73;;;;;;;4.23;100.00;100632.28;5251067;28;20292;-76
2023/12/08 00:03:20;;;;;;;12.52;11.13;;;;;;;4.30;100.00;100643.13;5253115;28;20040;-76
2023/12/08 00:05:52;;;;;;;15.57;10.38;;;;;;;4.27;100.00;100633.78;5250801;28;20029;-76
2023/12/08 00:08:24;;;;;;;13.23;9.93;;;;;;;4.28;100.00;100632.00;5252381;28;20055;-76
2023/12/08 00:10:56;;;;;;;13.93;10.02;;;;;;;4.30;100.00;100627.56;5251406;28;20027;-76
2023/12/08 00:13:28;;;;;;;12.63;10.70;;;;;;;4.23;100.00;100621.94;5252389;28;20032;-76
2023/12/08 00:16:00;;;;;;;13.48;11.18;;;;;;;4.25;100.00;100617.50;5250706;28;20041;-76
2023/12/08 00:18:31;;;;;;;15.80;10.88;;;;;;;4.29;100.00;100624.16;5251287;28;20033;-76
2023/12/08 00:21:03;;;;;;;14.65;11.25;;;;;;;4.29;100.00;100628.50;5252626;28;20516;-76
2023/12/08 00:23:35;;;;;;;14.18;10.77;;;;;;;4.29;100.00;100621.56;5249284;28;20049;-76
2023/12/08 00:26:07;;;;;;;14.90;11.60;;;;;;;4.32;100.00;100626.56;5250927;28;20292;-76
2023/12/08 00:28:39;;;;;;;13.43;10.93;;;;;;;4.37;100.00;100623.66;5251152;28;20036;-76
2023/12/08 00:31:11;;;;;;;15.55;11.55;;;;;;;4.37;100.00;100618.50;5252630;28;20044;-76
2023/12/08 00:33:43;;;;;;;14.95;10.77;;;;;;;4.44;100.00;100617.19;5257428;28;20055;-76
2023/12/08 00:36:16;;;;;;;14.43;11.13;;;;;;;4.44;100.00;100609.41;5262398;28;20490;-76
2023/12/08 00:38:48;;;;;;;14.57;11.27;;;;;;;4.44;100.00;100604.22;5265068;28;20037;-76
2023/12/08 00:41:20;;;;;;;13.65;11.23;;;;;;;4.39;100.00;100595.88;5263544;28;20090;-76
2023/12/08 00:43:52;;;;;;;14.90;11.13;;;;;;;4.47;100.00;100603.16;5260174;28;20110;-76
2023/12/08 00:46:24;;;;;;;13.32;11.30;;;;;;;4.45;100.00;100599.84;5261541;28;20033;-76
2023/12/08 00:48:56;;;;;;;14.15;10.88;;;;;;;4.43;100.00;100586.97;5262007;28;20028;-76
2023/12/08 00:51:28;;;;;;;13.18;10.80;;;;;;;4.51;100.00;100602.03;5242203;28;20051;-76
2023/12/08 00:53:59;;;;;;;13.98;10.80;;;;;;;4.50;100.00;100601.22;5260877;28;20047;-76
2023/12/08 00:56:31;;;;;;;14.68;11.15;;;;;;;4.54;100.00;100597.47;5263660;28;20390;-76
2023/12/08 00:59:03;;;;;;;13.48;10.73;;;;;;;4.50;100.00;100584.81;5261381;28;20041;-76
2023/12/08 01:01:35;;;;;;;13.40;10.73;;;;;;;4.57;100.00;100589.50;5262911;28;20028;-76
2023/12/08 01:04:07;;;;;;;16.50;12.35;;;;;;;4.58;100.00;100580.81;5261554;28;20047;-76
2023/12/08 01:06:39;;;;;;;14.68;10.98;;;;;;;4.56;100.00;100587.84;5260517;28;20043;-76
2023/12/08 01:09:12;;;;;;;13.63;11.52;;;;;;;4.58;100.00;100579.97;5260476;28;20039;-76
2023/12/08 01:11:44;;;;;;;13.85;10.95;;;;;;;4.46;100.00;100560.81;5241930;28;20044;-76
2023/12/08 01:14:16;;;;;;;13.10;10.68;;;;;;;4.53;100.00;100567.28;5260682;28;20075;-76
2023/12/08 01:16:47;;;;;;;14.25;11.20;;;;;;;4.57;100.00;100573.94;5262114;28;20063;-76
2023/12/08 01:19:19;;;;;;;14.45;11.30;;;;;;;4.59;100.00;100561.72;5258705;28;20045;-76
2023/12/08 01:21:51;;;;;;;12.13;9.90;;;;;;;4.63;100.00;100564.94;5259690;28;20039;-76
2023/12/08 01:24:24;;;;;;;14.05;11.02;;;;;;;4.59;100.00;100559.13;5260582;28;20044;-76
2023/12/08 01:26:56;;;;;;;13.60;11.55;;;;;;;4.59;100.00;100559.13;5261616;28;20629;-76
2023/12/08 01:29:28;;;;;;;13.63;11.02;;;;;;;4.59;100.00;100553.09;5260153;28;20066;-76
2023/12/08 01:31:59;;;;;;;13.55;11.15;;;;;;;4.59;100.00;100551.34;5254973;28;20051;-76
2023/12/08 01:34:31;;;;;;;13.93;10.95;;;;;;;4.55;100.00;100552.47;5240243;28;20029;-76
2023/12/08 01:37:03;;;;;;;13.80;10.18;;;;;;;4.51;100.00;100542.38;5239372;28;20032;-76
2023/12/08 01:39:35;;;;;;;15.77;11.30;;;;;;;4.54;100.00;100548.19;5240262;28;20029;-76
2023/12/08 01:42:07;;;;;;;13.07;11.02;;;;;;;4.53;100.00;100541.34;5240064;28;20032;-76
2023/12/08 01:44:39;;;;;;;13.45;10.63;;;;;;;4.52;100.00;100541.47;5239407;28;20043;-76
2023/12/08 01:47:12;;;;;;;12.73;10.90;;;;;;;4.53;100.00;100530.97;5239126;28;20037;-76
2023/12/08 01:49:44;;;;;;;14.15;10.88;;;;;;;4.56;100.00;100535.16;5238331;28;20037;-76
2023/12/08 01:52:21;;;;;;;12.88;10.82;;;;;;;4.57;100.00;100531.59;5239706;28;20032;-76
2023/12/08 01:54:57;;;;;;;14.38;11.57;;;;;;;4.48;100.00;100540.00;5232838;28;20049;-76
2023/12/08 01:57:29;;;;;;;14.95;11.73;;;;;;;4.41;100.00;100523.16;5240283;28;20036;-76
2023/12/08 02:00:01;;;;;;;15.80;11.23;;;;;;;4.45;100.00;100535.81;5238649;28;20030;-76
2023/12/08 02:02:34;;;;;;;12.80;10.55;;;;;;;4.47;100.00;100525.34;5238562;28;20029;-76
2023/12/08 02:05:06;;;;;;;13.82;10.90;;;;;;;4.48;100.00;100530.44;5241471;28;20044;-76
2023/12/08 02:07:38;;;;;;;13.73;11.00;;;;;;;4.53;100.00;100525.78;5238496;28;20029;-76
2023/12/08 02:10:10;;;;;;;13.45;10.98;;;;;;;4.46;100.00;100521.09;5240916;28;20032;-76
2023/12/08 02:12:43;;;;;;;13.55;10.73;;;;;;;4.49;100.00;100516.53;5242394;28;20022;-76
2023/12/08 02:15:15;;;;;;;14.10;11.00;;;;;;;4.48;100.00;100514.06;5237824;28;20036;-76
2023/12/08 02:17:48;;;;;;;12.63;10.45;;;;;;;4.47;100.00;100502.00;5240144;28;20036;-76
2023/12/08 02:20:20;;;;;;;12.57;10.63;;;;;;;4.46;100.00;100487.38;5237971;28;20043;-76
2023/12/08 02:22:52;;;;;;;13.75;11.00;;;;;;;4.45;100.00;100486.53;5240204;28;20031;-76
2023/12/08 02:25:24;;;;;;;14.48;10.60;;;;;;;4.40;100.00;100483.44;5218966;28;20056;-76
2023/12/08 02:27:56;;;;;;;13.73;10.73;;;;;;;4.43;100.00;100482.38;5240182;28;20036;-76
2023/12/08 02:30:28;;;;;;;14.50;11.07;;;;;;;4.41;100.00;100490.28;5240104;28;20043;-76
2023/12/08 02:33:11;;;;;;;14.07;11.23;;;;;;;4.53;100.00;100494.66;5245437;28;20406;-76
2023/12/08 02:35:45;;;;;;;14.90;10.73;;;;;;;4.44;100.00;100495.25;5248964;28;20032;-76
2023/12/08 02:38:21;;;;;;;15.38;11.98;;;;;;;4.43;100.00;100497.94;5244777;28;20053;-76
2023/12/08 02:40:54;;;;;;;11.55;10.25;;;;;;;4.36;100.00;100493.16;5249804;28;20036;-76
2023/12/08 02:43:26;;;;;;;13.02;11.02;;;;;;;4.38;100.00;100488.69;5248452;28;20598;-76
2023/12/08 02:45:58;;;;;;;12.90;10.55;;;;;;;4.39;100.00;100489.53;5248417;28;20127;-76
2023/12/08 02:48:30;;;;;;;13.73;11.13;;;;;;;4.39;100.00;100481.75;5250014;28;20041;-76
2023/12/08 02:51:03;;;;;;;13.45;11.05;;;;;;;4.39;100.00;100481.75;5248613;28;20033;-76
2023/12/08 02:53:35;;;;;;;13.85;11.35;;;;;;;4.45;100.00;100488.31;5249279;28;20033;-76
2023/12/08 02:56:07;;;;;;;13.20;10.75;;;;;;;4.44;100.00;100490.06;5246702;28;20032;-76
2023/12/08 02:58:39;;;;;;;14.35;11.95;;;;;;;4.44;100.00;100497.03;5245287;28;20043;-76
2023/12/08 03:01:11;;;;;;;14.98;11.75;;;;;;;4.41;100.00;100497.22;5248147;28;20060;-76
2023/12/08 03:03:43;;;;;;;14.88;11.40;;;;;;;4.38;100.00;100493.88;5249826;28;20037;-76
2023/12/08 03:06:15;;;;;;;13.45;11.10;;;;;;;4.41;100.00;100494.63;5249316;28;20389;-76
2023/12/08 03:08:47;;;;;;;14.07;11.40;;;;;;;4.46;100.00;100502.94;5245367;28;20037;-76
2023/12/08 03:11:18;;;;;;;12.98;10.25;;;;;;;4.45;100.00;100499.50;5249513;28;20044;-76
2023/12/08 03:13:50;;;;;;;14.13;11.52;;;;;;;4.41;100.00;100494.63;5250117;28;20091;-76
2023/12/08 03:16:22;;;;;;;13.77;11.27;;;;;;;4.40;100.00;100493.81;5249319;28;20029;-76
2023/12/08 03:18:54;;;;;;;14.40;12.05;;;;;;;4.37;100.00;100497.41;5249370;28;20480;-76
2023/12/08 03:21:27;;;;;;;16.60;11.70;;;;;;;4.37;100.00;100491.41;5252371;28;20032;-76
2023/12/08 03:23:58;;;;;;;16.17;12.27;;;;;;;4.39;100.00;100481.75;5244464;28;20028;-76
2023/12/08 03:26:30;;;;;;;14.45;12.13;;;;;;;4.30;100.00;100474.56;5248500;28;20037;-76
2023/12/08 03:29:02;;;;;;;13.82;11.40;;;;;;;4.33;100.00;100482.16;5252076;28;20041;-76
2023/12/08 03:31:34;;;;;;;14.57;12.18;;;;;;;4.35;100.00;100488.06;5250452;28;20495;-76
2023/12/08 03:34:06;;;;;;;14.73;12.02;;;;;;;4.39;100.00;100481.75;5252717;28;20044;-76
2023/12/08 03:36:38;;;;;;;14.48;11.45;;;;;;;4.37;100.00;100483.63;5252709;28;20032;-76
2023/12/08 03:39:10;;;;;;;14.15;11.85;;;;;;;4.39;100.00;100489.53;5251146;28;20532;-76
2023/12/08 03:41:42;;;;;;;15.73;12.52;;;;;;;4.42;100.00;100486.72;5249479;28;20037;-76
2023/12/08 03:44:14;;;;;;;13.48;12.02;;;;;;;4.39;100.00;100480.00;5251331;28;20039;-76
2023/12/08 03:46:46;;;;;;;13.75;12.10;;;;;;;4.37;100.00;100478.44;5253523;28;20052;-76
2023/12/08 03:49:18;;;;;;;16.20;12.50;;;;;;;4.38;100.00;100478.31;5248474;28;20037;-76
2023/12/08 03:51:50;;;;;;;15.68;12.23;;;;;;;4.26;100.00;100452.38;5251875;28;20025;-76
2023/12/08 03:54:22;;;;;;;14.70;12.82;;;;;;;4.34;100.00;100469.09;5251751;28;20029;-76
2023/12/08 03:56:54;;;;;;;14.77;11.73;;;;;;;4.36;100.00;100476.78;5252611;28;20036;-76
2023/12/08 03:59:25;;;;;;;13.80;11.60;;;;;;;4.35;100.00;100472.50;5250833;28;20036;-76
2023/12/08 04:01:57;;;;;;;15.82;12.65;;;;;;;4.35;100.00;100469.91;5250284;28;20067;-76
2023/12/08 04:04:29;;;;;;;15.70;12.27;;;;;;;4.37;100.00;100455.09;5250964;28;20033;-76
2023/12/08 04:07:02;;;;;;;15.02;12.20;;;;;;;4.35;100.00;100449.16;5249977;28;20034;-76
2023/12/08 04:09:34;;;;;;;14.93;11.25;;;;;;;4.40;100.00;100452.31;5251643;28;20035;-76
2023/12/08 04:12:06;;;;;;;13.50;11.40;;;;;;;4.32;100.00;100437.25;5251233;28;20407;-76
2023/12/08 04:14:38;;;;;;;17.60;12.68;;;;;;;4.37;100.00;100426.56;5252314;28;20043;-76
2023/12/08 04:17:09;;;;;;;19.27;12.95;;;;;;;4.38;100.00;100438.59;5249174;28;20037;-76
2023/12/08 04:19:41;;;;;;;15.77;12.60;;;;;;;4.36;100.00;100430.09;5252082;28;20033;-76
2023/12/08 04:22:13;;;;;;;16.15;12.25;;;;;;;4.38;100.00;100465.34;5251954;28;20029;-76
2023/12/08 04:24:45;;;;;;;15.30;12.18;;;;;;;4.38;100.00;100469.72;5249758;28;20501;-76
2023/12/08 04:27:17;;;;;;;14.48;12.48;;;;;;;4.38;100.00;100449.78;5251876;28;20437;-76
2023/12/08 04:29:49;;;;;;;15.20;12.82;;;;;;;4.37;100.00;100460.28;5250930;28;20315;-76
2023/12/08 04:32:21;;;;;;;15.32;11.73;;;;;;;4.40;100.00;100462.69;5243738;28;20115;-76
2023/12/08 04:34:53;;;;;;;14.85;12.00;;;;;;;4.44;100.00;100474.50;5242604;28;20031;-76
2023/12/08 04:37:25;;;;;;;14.77;12.25;;;;;;;4.38;100.00;100459.34;5244216;28;20041;-76
2023/12/08 04:39:56;;;;;;;15.73;11.93;;;;;;;4.35;100.00;100437.03;5241128;28;20043;-76
2023/12/08 04:42:28;;;;;;;13.55;11.80;;;;;;;4.42;100.00;100442.66;5242229;28;20040;-76
2023/12/08 04:45:00;;;;;;;15.38;12.43;;;;;;;4.38;100.00;100436.81;5245167;28;20037;-76
2023/12/08 04:47:32;;;;;;;14.35;12.40;;;;;;;4.42;100.00;100457.38;5238601;28;20031;-76
2023/12/08 04:50:04;;;;;;;14.85;11.65;;;;;;;4.41;100.00;100453.97;5241892;28;20071;-76
2023/12/08 04:52:36;;;;;;;15.43;12.48;;;;;;;4.48;100.00;100455.22;5240228;28;20467;-76
2023/12/08 04:55:08;;;;;;;14.00;11.93;;;;;;;4.51;100.00;100448.97;5240689;28;20075;-76
2023/12/08 04:57:40;;;;;;;13.52;11.85;;;;;;;4.50;100.00;100455.94;5236388;28;20032;-76
2023/12/08 05:00:12;;;;;;;15.40;12.80;;;;;;;4.52;100.00;100448.06;5243142;28;20037;-76
2023/12/08 05:02:44;;;;;;;16.13;12.23;;;;;;;4.48;100.00;100442.25;5222109;28;20129;-76
2023/12/08 05:05:16;;;;;;;14.90;12.82;;;;;;;4.51;100.00;100444.66;5240964;28;20040;-76
2023/12/08 05:07:48;;;;;;;15.38;12.82;;;;;;;4.52;100.00;100448.91;5240259;28;20397;-76
2023/12/08 05:10:20;;;;;;;15.75;12.43;;;;;;;4.52;100.00;100437.69;5243130;28;20135;-76
2023/12/08 05:12:52;;;;;;;16.42;11.95;;;;;;;4.49;100.00;100428.34;5239133;28;20033;-76
2023/12/08 05:15:24;;;;;;;14.63;12.27;;;;;;;4.50;100.00;100426.56;5240509;28;20036;-76
2023/12/08 05:17:56;;;;;;;14.63;12.07;;;;;;;4.54;100.00;100428.84;5238870;28;20054;-76
2023/12/08 05:20:27;;;;;;;14.00;12.27;;;;;;;4.56;100.00;100437.38;5243236;28;20466;-76
2023/12/08 05:22:59;;;;;;;13.73;11.48;;;;;;;4.58;100.00;100422.56;5240453;28;20036;-76
2023/12/08 05:25:31;;;;;;;14.50;11.48;;;;;;;4.61;100.00;100429.28;5240973;28;20070;-76
2023/12/08 05:28:03;;;;;;;14.48;11.98;;;;;;;4.66;100.00;100439.34;5241976;28;20045;-76
2023/12/08 05:30:35;;;;;;;15.63;11.95;;;;;;;4.66;100.00;100435.03;5237510;28;20036;-76
2023/12/08 05:33:08;;;;;;;15.38;12.15;;;;;;;4.68;100.00;100440.94;5242197;28;20084;-76
2023/12/08 05:35:40;;;;;;;14.13;11.82;;;;;;;4.72;100.00;100444.16;5238380;28;20395;-76
2023/12/08 05:38:12;;;;;;;15.48;12.18;;;;;;;4.68;100.00;100450.47;5241246;28;20029;-76
2023/12/08 05:40:44;;;;;;;13.38;11.52;;;;;;;4.72;100.00;100446.75;5238456;28;20039;-76
2023/12/08 05:43:15;;;;;;;15.77;12.35;;;;;;;4.74;100.00;100457.88;5240879;28;20025;-76
2023/12/08 05:45:48;;;;;;;14.20;11.88;;;;;;;4.75;100.00;100451.72;5238997;28;20643;-76
2023/12/08 05:48:21;;;;;;;16.63;11.50;;;;;;;4.75;100.00;100457.75;5237748;28;20044;-76
2023/12/08 05:50:52;;;;;;;13.20;11.50;;;;;;;4.80;100.00;100455.66;5225604;28;20045;-76
2023/12/08 05:53:24;;;;;;;13.85;11.60;;;;;;;4.80;100.00;100458.25;5240296;28;20372;-76
2023/12/08 05:55:56;;;;;;;14.15;11.48;;;;;;;4.85;100.00;100452.78;5236111;28;20076;-76
2023/12/08 05:58:28;;;;;;;15.20;11.18;;;;;;;4.88;100.00;100453.38;5240915;28;20033;-76
2023/12/08 06:01:00;;;;;;;14.25;11.30;;;;;;;4.92;100.00;100451.41;5222418;28;20053;-76
2023/12/08 06:03:32;;;;;;;15.50;11.70;;;;;;;4.91;100.00;100459.31;5239318;28;20033;-76
2023/12/08 06:06:04;;;;;;;14.77;11.40;;;;;;;4.90;100.00;100442.91;5239264;28;20033;-76
2023/12/08 06:08:36;;;;;;;14.77;11.85;;;;;;;4.89;100.00;100451.66;5239246;28;20037;-76
2023/12/08 06:11:08;;;;;;;13.90;11.93;;;;;;;4.86;100.00;100454.44;5239378;28;20052;-76
2023/12/08 06:13:40;;;;;;;16.13;11.38;;;;;;;4.92;100.00;100445.41;5239125;28;20035;-76
2023/12/08 06:16:11;;;;;;;15.43;12.13;;;;;;;4.90;100.00;100448.09;5240161;28;20390;-76
2023/12/08 06:18:43;;;;;;;15.60;11.88;;;;;;;4.86;100.00;100441.47;5221101;28;20033;-76
2023/12/08 06:21:17;;;;;;;14.75;11.82;;;;;;;4.97;100.00;100456.31;5241520;28;20033;-76
2023/12/08 06:23:48;;;;;;;15.38;11.65;;;;;;;5.03;100.00;100456.72;5239667;28;20387;-76
2023/12/08 06:26:20;;;;;;;16.52;12.32;;;;;;;5.00;100.00;100456.94;5220447;28;20045;-76
2023/12/08 06:28:53;;;;;;;16.38;12.40;;;;;;;5.03;100.00;100458.47;5240798;28;20036;-76
2023/12/08 06:31:24;;;;;;;16.20;12.98;;;;;;;5.00;100.00;100453.50;5239320;28;20392;-76
2023/12/08 06:33:56;;;;;;;17.52;12.15;;;;;;;5.11;100.00;100459.66;5238277;28;20039;-75
2023/12/08 06:36:28;;;;;;;15.48;11.88;;;;;;;5.09;100.00;100463.28;5234824;28;20042;-76
2023/12/08 06:39:00;;;;;;;17.83;13.07;;;;;;;5.12;100.00;100463.91;5232494;28;20033;-76
2023/12/08 06:41:32;;;;;;;15.77;12.65;;;;;;;5.04;100.00;100452.38;5239222;28;20662;-76
2023/12/08 06:44:04;;;;;;;16.02;12.32;;;;;;;5.11;100.00;100470.03;5219993;28;20033;-76
2023/12/08 06:46:36;;;;;;;15.05;12.07;;;;;;;5.17;100.00;100483.53;5240419;28;20033;-76
2023/12/08 06:49:08;;;;;;;15.23;12.05;;;;;;;5.13;100.00;100477.72;5233887;28;20029;-76
2023/12/08 06:51:40;;;;;;;15.90;11.90;;;;;;;5.14;100.00;100471.56;5240360;28;20036;-76
2023/12/08 06:54:12;;;;;;;15.68;12.52;;;;;;;5.15;100.00;100481.00;5236479;28;20483;-76
2023/12/08 06:56:43;;;;;;;17.00;12.27;;;;;;;5.17;100.00;100479.16;5239546;28;20363;-76
2023/12/08 06:59:15;;;;;;;17.23;12.30;;;;;;;5.14;100.00;100476.75;5232641;28;20356;-76
2023/12/08 07:01:47;;;;;;;17.00;13.27;;;;;;;5.13;100.00;100469.91;5231705;28;20401;-76
2023/12/08 07:04:19;;;;;;;20.20;12.38;;;;;;;5.22;100.00;100484.84;5238836;28;20038;-76
2023/12/08 07:06:51;;;;;;;15.82;12.55;;;;;;;5.26;100.00;100477.69;5236213;28;20052;-76
2023/12/08 07:09:23;;;;;;;15.82;13.45;;;;;;;5.27;100.00;100484.56;5239001;28;20041;-76
2023/12/08 07:11:55;;;;;;;18.85;13.00;;;;;;;5.29;100.00;100480.91;5238047;28;20489;-76
2023/12/08 07:14:27;;;;;;;15.07;12.57;;;;;;;5.29;100.00;100477.50;5237569;28;20414;-77
2023/12/08 07:16:59;;;;;;;18.58;13.23;;;;;;;5.31;100.00;100475.63;5236444;28;20033;-76
2023/12/08 07:19:31;;;;;;;17.27;12.32;;;;;;;5.27;100.00;100468.97;5234361;28;20037;-76
2023/12/08 07:22:03;;;;;;;15.80;12.32;;;;;;;5.31;100.00;100476.47;5231743;28;20029;-76
2023/12/08 07:24:39;;;;;;;16.30;12.98;;;;;;;5.43;100.00;100485.16;5233462;28;20033;-76
2023/12/08 07:27:11;;;;;;;21.10;14.40;;;;;;;5.36;100.00;100484.75;5237176;28;20407;-76
2023/12/08 07:29:43;;;;;;;16.77;12.82;;;;;;;5.37;100.00;100493.38;5230444;28;20048;-76
2023/12/08 07:32:15;;;;;;;16.35;12.68;;;;;;;5.36;100.00;100494.31;5213207;28;20550;-76
2023/12/08 07:34:46;;;;;;;15.23;12.48;;;;;;;5.36;100.00;100496.91;5231957;28;20433;-76
2023/12/08 07:37:18;;;;;;;17.27;13.38;;;;;;;5.41;100.00;100497.41;5236650;28;20059;-76
2023/12/08 07:39:50;;;;;;;17.33;13.55;;;;;;;5.42;100.00;100496.50;5232148;28;20037;-76
2023/12/08 07:42:22;;;;;;;20.30;14.82;;;;;;;5.43;100.00;100505.94;5238491;28;20033;-75
2023/12/08 07:44:54;;;;;;;17.60;14.10;;;;;;;5.44;100.00;100506.78;5234423;28;20040;-76
2023/12/08 07:47:27;;;;;;;23.77;15.27;;;;;;;5.44;100.00;100493.78;5229578;28;20136;-76
2023/12/08 07:49:58;;;;;;;17.67;13.13;;;;;;;5.54;100.00;100515.59;5234998;28;20037;-76
2023/12/08 07:52:31;;;;;;;23.35;15.05;;;;;;;5.49;100.00;100528.94;5233919;28;20032;-77
2023/12/08 07:55:03;;;;;;;18.13;14.60;;;;;;;5.52;100.00;100518.28;5231231;28;20037;-77
2023/12/08 07:57:35;;;;;;;19.13;14.85;;;;;;;5.55;100.00;100522.47;5233837;28;20474;-77
2023/12/08 08:00:10;;;;;;;19.48;15.07;;;;;;;5.57;100.00;100513.63;5237606;28;20045;-77
2023/12/08 08:02:43;;;;;;;20.23;14.88;;;;;;;5.57;100.00;100516.22;5220067;28;20521;-77
2023/12/08 08:05:15;;;;;;;23.80;16.33;;;;;;;5.64;100.00;100513.19;5233719;28;20032;-77
2023/12/08 08:07:47;;;;;;;23.20;16.52;;;;;;;5.67;100.00;100519.00;5240026;28;20536;-77
2023/12/08 08:10:21;;;;;;;21.00;16.13;;;;;;;5.57;100.00;100505.84;5235363;28;20036;-77
2023/12/08 08:12:52;;;;;;;26.20;16.65;;;;;;;5.72;100.00;100532.53;5233616;28;20028;-77
2023/12/08 08:15:24;;;;;;;24.73;18.02;;;;;;;5.70;100.00;100512.78;5238196;28;20033;-77
2023/12/08 08:17:56;;;;;;;25.42;17.42;;;;;;;5.77;100.00;100524.41;5235663;28;20029;-77
2023/12/08 08:20:28;;;;;;;26.33;18.80;;;;;;;5.77;100.00;100525.25;5239127;28;20586;-77
2023/12/08 08:23:00;;;;;;;29.55;19.65;;;;;;;5.77;100.00;100527.00;5236815;28;20060;-77
2023/12/08 08:25:32;;;;;;;33.67;22.10;;;;;;;5.71;100.00;100514.44;5235240;28;20026;-77
2023/12/08 08:28:04;;;;;;;28.80;20.77;;;;;;;5.80;100.00;100527.63;5241967;28;20037;-77
2023/12/08 08:30:37;;;;;;;33.58;21.42;;;;;;;5.82;100.00;100528.34;5242018;28;20474;-77
2023/12/08 08:33:09;;;;;;;35.55;21.58;;;;;;;5.86;100.00;100514.19;5235723;28;20045;-76
2023/12/08 08:35:41;;;;;;;36.22;23.48;;;;;;;5.89;100.00;100522.72;5238973;28;20033;-77
2023/12/08 08:38:14;;;;;;;37.13;23.10;;;;;;;5.86;100.00;100508.97;5240644;28;20044;-77
2023/12/08 08:40:46;;;;;;;36.88;22.42;;;;;;;5.95;100.00;100528.34;5240382;28;20029;-77
2023/12/08 08:43:18;;;;;;;31.58;21.20;;;;;;;5.96;100.00;100537.81;5218471;28;20046;-77
2023/12/08 08:45:50;;;;;;;27.40;19.88;;;;;;;6.00;100.00;100534.06;5233373;28;20040;-77
2023/12/08 08:48:21;;;;;;;34.47;19.20;;;;;;;6.07;100.00;100553.47;5241817;28;20033;-77
2023/12/08 08:50:53;;;;;;;29.27;19.88;;;;;;;6.11;100.00;100559.31;5220202;28;20045;-77
2023/12/08 08:53:27;;;;;;;36.42;19.50;;;;;;;6.16;100.00;100556.38;5239818;28;20330;-77
2023/12/08 08:55:59;;;;;;;34.55;18.00;;;;;;;6.20;100.00;100550.00;5236778;28;20044;-77
2023/12/08 08:58:32;;;;;;;28.10;16.98;;;;;;;6.24;100.00;100554.88;5235022;28;20041;-77
2023/12/08 09:01:04;;;;;;;34.08;18.15;;;;;;;6.34;100.00;100557.66;5239237;28;20621;-77
2023/12/08 09:03:36;;;;;;;30.38;17.15;;;;;;;6.38;100.00;100559.09;5237003;28;20041;-77
2023/12/08 09:06:08;;;;;;;25.70;15.98;;;;;;;6.36;100.00;100565.34;5234313;28;20044;-77
2023/12/08 09:08:39;;;;;;;33.67;17.73;;;;;;;6.42;100.00;100565.75;5235695;28;20405;-77
2023/12/08 09:11:13;;;;;;;27.65;16.88;;;;;;;6.51;100.00;100572.88;5240313;28;20075;-77
2023/12/08 09:13:45;;;;;;;34.50;16.90;;;;;;;6.50;100.00;100568.63;5235900;28;20025;-77
2023/12/08 09:16:17;;;;;;;27.43;16.10;;;;;;;6.54;100.00;100564.84;5237070;28;20040;-77
2023/12/08 09:18:49;;;;;;;23.90;16.13;;;;;;;6.54;100.00;100564.03;5234234;28;20041;-77
2023/12/08 09:21:21;;;;;;;24.30;16.17;;;;;;;6.60;100.00;100578.38;5238096;28;20044;-77
2023/12/08 09:23:54;;;;;;;29.73;16.63;;;;;;;6.59;100.00;100564.50;5239128;28;20037;-77
2023/12/08 09:26:25;;;;;;;32.80;16.08;;;;;;;6.70;100.00;100555.94;5240958;28;20045;-77
2023/12/08 09:28:57;;;;;;;33.95;15.85;;;;;;;6.73;100.00;100566.94;5240220;28;20379;-77
2023/12/08 09:31:29;;;;;;;30.88;16.33;;;;;;;6.74;100.00;100560.81;5236555;28;20110;-77
2023/12/08 09:34:01;;;;;;;30.13;16.50;;;;;;;6.79;100.00;100573.50;5239036;28;20033;-77
2023/12/08 09:36:33;;;;;;;37.45;18.48;;;;;;;6.86;100.00;100584.28;5237448;28;20041;-77
2023/12/08 09:39:05;;;;;;;33.65;16.85;;;;;;;6.92;100.00;100586.44;5235482;28;20144;-77
2023/12/08 09:41:39;;;;;;;27.13;16.10;;;;;;;6.95;100.00;100574.03;5237290;28;20036;-77
2023/12/08 09:44:12;;;;;;;;;;;;;;;7.56;100.00;100585.03;5234135;28;20021;-77
2023/12/08 09:46:44;;;;;;;26.58;15.35;;;;;;;7.06;100.00;100579.28;5231476;28;19920;-77
2023/12/08 09:49:40;;;;;;;24.40;15.68;;;;;;;7.31;100.00;100582.63;5238261;28;20502;-77
2023/12/08 09:52:14;;;;;;;28.13;15.60;;;;;;;7.08;100.00;100584.34;5239360;28;20052;-77
2023/12/08 09:54:46;;;;;;;29.00;16.25;;;;;;;7.08;100.00;100584.34;5235927;28;20033;-77
2023/12/08 09:57:19;;;;;;;31.33;16.55;;;;;;;7.07;100.00;100577.50;5237422;28;20037;-77
2023/12/08 09:59:53;;;;;;;27.40;16.23;;;;;;;7.21;100.00;100598.13;5237363;28;20030;-77
2023/12/08 10:02:25;;;;;;;28.42;15.93;;;;;;;7.16;100.00;100584.63;5234431;28;20032;-77
2023/12/08 10:04:57;;;;;;;26.17;15.27;;;;;;;7.29;100.00;100592.34;5238061;28;20589;-77
2023/12/08 10:07:33;;;;;;;31.40;16.75;;;;;;;7.29;100.00;100590.56;5238557;28;20029;-77
2023/12/08 10:10:08;;;;;;;26.45;15.40;;;;;;;7.47;100.00;100585.75;5237536;28;20029;-77
2023/12/08 10:12:40;;;;;;;31.08;15.88;;;;;;;7.46;100.00;100581.50;5237848;28;20423;-77
2023/12/08 10:15:12;;;;;;;30.00;16.15;;;;;;;7.59;100.00;100583.16;5242366;28;20041;-77
2023/12/08 10:17:47;;;;;;;27.17;15.60;;;;;;;7.64;100.00;100583.63;5236820;28;20521;-77
2023/12/08 10:20:21;;;;;;;28.88;14.90;;;;;;;7.72;100.00;100583.88;5238390;28;20037;-77
2023/12/08 10:22:55;;;;;;;28.55;16.02;;;;;;;7.77;100.00;100585.19;5218205;28;20397;-77
2023/12/08 10:25:27;;;;;;;31.10;15.90;;;;;;;7.77;100.00;100589.59;5232509;28;20115;-77
2023/12/08 10:27:59;;;;;;;25.55;14.93;;;;;;;7.84;100.00;100590.78;5236626;28;20037;-77
2023/12/08 10:30:31;;;;;;;35.88;16.35;;;;;;;7.89;100.00;100591.22;5234455;28;20029;-77
2023/12/08 10:33:03;;;;;;;28.45;15.75;;;;;;;7.89;100.00;100591.22;5242623;28;20098;-77
2023/12/08 10:35:38;;;;;;;25.67;14.00;;;;;;;8.00;100.00;100603.44;5247035;28;20037;-77
2023/12/08 10:38:10;;;;;;;30.35;15.55;;;;;;;8.00;100.00;100595.63;5248179;28;20032;-77
2023/12/08 10:40:46;;;;;;;28.83;15.65;;;;;;;8.12;100.00;100599.88;5245252;28;20040;-77
2023/12/08 10:43:22;;;;;;;33.55;15.50;;;;;;;8.03;100.00;100603.19;5246198;28;20047;-77
2023/12/08 10:45:55;;;;;;;29.17;14.75;;;;;;;8.08;100.00;100592.41;5243627;28;20486;-77
2023/12/08 10:48:27;;;;;;;30.27;16.05;;;;;;;8.15;100.00;100598.81;5238229;28;20041;-77
2023/12/08 10:50:59;;;;;;;31.25;17.50;;;;;;;8.17;100.00;100597.72;5248329;28;20526;-77
2023/12/08 10:53:31;;;;;;;30.05;17.58;;;;;;;8.18;100.00;100585.50;5240824;28;20389;-77
2023/12/08 10:56:15;;;;;;;32.05;16.55;;;;;;;8.42;100.00;100591.44;5246373;28;20037;-77
2023/12/08 10:58:56;;;;;;;35.20;16.48;;;;;;;8.31;100.00;100580.97;5244013;28;20044;-77
2023/12/08 11:01:32;;;;;;;34.20;16.65;;;;;;;8.41;100.00;100592.41;5238978;28;20409;-77
2023/12/08 11:04:10;;;;;;;30.48;17.30;;;;;;;8.42;100.00;100598.44;5246800;28;20514;-77
2023/12/08 11:07:04;;;;;;;31.98;15.77;;;;;;;8.62;100.00;100595.06;5246650;28;20032;-77
2023/12/08 11:09:37;;;;;;;;;;;;;;;9.02;100.00;100600.47;5247478;28;20032;-77
2023/12/08 11:12:13;;;;;;;28.35;15.75;;;;;;;8.51;100.00;100598.53;5246990;28;19923;-77
2023/12/08 11:15:16;;;;;;;34.15;16.63;;;;;;;8.82;100.00;100596.03;5241584;28;20040;-77
2023/12/08 11:17:52;;;;;;;32.00;16.70;;;;;;;8.60;100.00;100591.75;5239885;28;20040;-77
2023/12/08 11:20:24;;;;;;;30.23;15.38;;;;;;;8.60;100.00;100609.16;5248643;28;20474;-77
2023/12/08 11:22:57;;;;;;;30.65;15.77;;;;;;;8.58;100.00;100580.59;5245863;28;20052;-77
2023/12/08 11:25:41;;;;;;;37.95;15.48;;;;;;;8.80;100.00;100611.03;5246880;28;20036;-77
2023/12/08 11:28:26;;;;;;;30.85;14.90;;;;;;;8.85;100.00;100608.84;5244559;28;20033;-77
2023/12/08 11:31:06;;;;;;;30.30;16.02;;;;;;;8.86;100.00;100601.84;5247875;28;20033;-77
2023/12/08 11:33:50;;;;;;;33.45;14.85;;;;;;;8.76;100.00;100605.22;5252891;28;20049;-77